Ballonweer?

Available data for EHGG from the past 2 hours
GRONINGEN/EELDE
Metar
EHGG 261025Z AUTO 17006KT 140V200 4100 BR BKN004 OVC005 03/03 Q1015 BECMG 5000

10:25 UTC

Wind: 170° 6kt

Visibility: 4100 m

Sky: BKN 400 ft

Temp: 3 deg C / 37.4 deg F

Dewpoint: 3 deg C / 37.4 deg F

Pressure: 1015 hPa

TAF
TAF AMD EHGG 260654Z 2606/2712 15009KT 0600 FG VV000 BECMG 2606/2610 19010KT 2000 BR BKN004 BECMG 2610/2613 4000 BKN008 BECMG 2613/2616 7000 NSW BKN016 PROB30 TEMPO 2622/2703 4000 BR BKN010 TEMPO 2703/2706 4000 RADZ BKN008 BECMG 2706/2708 BKN008 BECMG 2710/2712 9999 BKN018

Buienradar (tot 2 uur vooruit)

 

KNMI weerbulletin kleine luchtvaart

Klik hier om het weerbulletin te openen in een nieuw tabblad.